createdAt,value
2022-12-28T00:01:47.027Z,5.20
2022-12-28T00:04:15.633Z,5.93
2022-12-28T00:06:42.774Z,5.05
2022-12-28T00:09:12.932Z,4.85
2022-12-28T00:11:40.161Z,5.10
2022-12-28T00:14:08.841Z,5.57
2022-12-28T00:16:39.423Z,6.40
2022-12-28T00:19:12.018Z,8.05
2022-12-28T00:21:41.577Z,7.38
2022-12-28T00:24:14.957Z,7.70
2022-12-28T00:26:41.961Z,7.07
2022-12-28T00:29:09.631Z,7.40
2022-12-28T00:31:36.635Z,6.07
2022-12-28T00:34:04.398Z,6.03
2022-12-28T00:37:09.901Z,7.03
2022-12-28T00:39:20.762Z,4.85
2022-12-28T00:41:48.426Z,5.65
2022-12-28T00:44:16.103Z,5.95
2022-12-28T00:46:43.194Z,5.60
2022-12-28T00:49:10.732Z,7.35
2022-12-28T00:51:37.756Z,5.80
2022-12-28T00:54:05.081Z,5.68
2022-12-28T00:56:32.155Z,5.68
2022-12-28T00:59:00.103Z,6.07
2022-12-28T01:01:28.156Z,5.72
2022-12-28T01:03:57.240Z,5.60
2022-12-28T01:06:24.284Z,5.22
2022-12-28T01:08:52.255Z,6.25
2022-12-28T01:11:25.394Z,6.03
2022-12-28T01:13:54.759Z,6.50
2022-12-28T01:16:30.838Z,5.97
2022-12-28T01:19:00.302Z,5.90
2022-12-28T01:21:30.276Z,5.57
2022-12-28T01:24:00.519Z,5.45
2022-12-28T01:26:28.785Z,6.18
2022-12-28T01:28:56.527Z,6.07
2022-12-28T01:31:23.765Z,6.28
2022-12-28T01:33:51.111Z,6.07
2022-12-28T01:36:26.995Z,6.28
2022-12-28T01:38:59.944Z,5.80
2022-12-28T01:41:29.108Z,5.95
2022-12-28T01:43:56.586Z,6.18
2022-12-28T01:46:52.563Z,5.72
2022-12-28T01:49:34.064Z,7.38
2022-12-28T01:52:07.595Z,6.80
2022-12-28T01:54:48.879Z,6.93
2022-12-28T01:57:17.239Z,7.30
2022-12-28T01:59:51.891Z,7.25
2022-12-28T02:02:19.922Z,7.20
2022-12-28T02:04:48.295Z,7.25
2022-12-28T02:07:40.024Z,7.13
2022-12-28T02:10:41.209Z,6.82
2022-12-28T02:12:57.803Z,7.00
2022-12-28T02:15:25.169Z,7.13
2022-12-28T02:17:52.248Z,6.25
2022-12-28T02:20:19.904Z,7.05
2022-12-28T02:22:52.563Z,6.07
2022-12-28T02:25:49.173Z,6.60
2022-12-28T02:28:54.826Z,8.00
2022-12-28T02:31:32.284Z,6.28
2022-12-28T02:34:10.062Z,7.18
2022-12-28T02:36:42.842Z,6.88
2022-12-28T02:39:19.531Z,6.28
2022-12-28T02:41:48.207Z,7.40
2022-12-28T02:44:35.694Z,5.75
2022-12-28T02:47:23.431Z,6.03
2022-12-28T02:50:09.110Z,5.55
2022-12-28T02:52:59.297Z,5.47
2022-12-28T02:55:56.600Z,5.47
2022-12-28T02:58:48.479Z,5.13
2022-12-28T03:01:34.495Z,5.78
2022-12-28T03:04:20.356Z,4.47
2022-12-28T03:07:27.411Z,5.45
2022-12-28T03:10:23.166Z,5.10
2022-12-28T03:12:54.214Z,4.95
2022-12-28T03:15:29.880Z,5.45
2022-12-28T03:18:36.917Z,6.63
2022-12-28T03:21:28.680Z,6.43
2022-12-28T03:24:15.246Z,6.13
2022-12-28T03:27:06.540Z,5.70
2022-12-28T03:29:58.920Z,5.90
2022-12-28T03:32:26.462Z,5.30
2022-12-28T03:34:53.711Z,6.20
2022-12-28T03:37:28.335Z,5.65
2022-12-28T03:40:06.358Z,6.15
2022-12-28T03:42:58.170Z,6.93
2022-12-28T03:45:46.752Z,5.47
2022-12-28T03:48:16.506Z,6.78
2022-12-28T03:50:46.861Z,6.80
2022-12-28T03:53:15.536Z,7.72
2022-12-28T03:55:43.369Z,6.35
2022-12-28T03:58:11.025Z,6.13
2022-12-28T04:00:38.082Z,6.55
2022-12-28T04:03:05.473Z,6.43
2022-12-28T04:05:32.589Z,6.68
2022-12-28T04:07:59.823Z,6.50
2022-12-28T04:10:26.831Z,7.05
2022-12-28T04:12:57.374Z,7.25
2022-12-28T04:15:24.519Z,5.70
2022-12-28T04:17:51.792Z,5.85
2022-12-28T04:20:18.789Z,6.20
2022-12-28T04:22:46.175Z,6.57
2022-12-28T04:25:13.422Z,5.00
2022-12-28T04:27:40.664Z,6.07
2022-12-28T04:30:08.112Z,5.63
2022-12-28T04:32:36.044Z,5.47
2022-12-28T04:35:03.604Z,4.85
2022-12-28T04:37:31.089Z,4.82
2022-12-28T04:39:58.081Z,5.47
2022-12-28T04:42:26.493Z,5.07
2022-12-28T04:44:53.516Z,5.38
2022-12-28T04:47:20.770Z,4.95
2022-12-28T04:49:47.799Z,5.75
2022-12-28T04:52:15.065Z,5.40
2022-12-28T04:54:42.215Z,6.65
2022-12-28T04:57:09.541Z,6.47
2022-12-28T04:59:36.566Z,6.30
2022-12-28T05:02:04.205Z,6.25
2022-12-28T05:04:31.348Z,6.43
2022-12-28T05:06:58.668Z,6.68
2022-12-28T05:09:25.644Z,7.30
2022-12-28T05:11:53.104Z,7.15
2022-12-28T05:14:20.093Z,7.65
2022-12-28T05:16:51.552Z,7.10
2022-12-28T05:19:18.580Z,6.93
2022-12-28T05:21:46.083Z,8.10
2022-12-28T05:24:13.033Z,7.40
2022-12-28T05:26:40.241Z,7.07
2022-12-28T05:29:07.295Z,7.03
2022-12-28T05:31:34.533Z,7.30
2022-12-28T05:34:01.821Z,7.47
2022-12-28T05:36:29.184Z,6.45
2022-12-28T05:38:56.983Z,7.30
2022-12-28T05:41:27.579Z,6.95
2022-12-28T05:43:55.893Z,7.88
2022-12-28T05:46:31.346Z,6.63
2022-12-28T05:48:59.299Z,6.80
2022-12-28T05:51:29.241Z,7.03
2022-12-28T05:53:58.144Z,7.80
2022-12-28T05:56:28.356Z,6.10
2022-12-28T05:58:57.246Z,6.30
2022-12-28T06:01:28.041Z,7.55
2022-12-28T06:04:00.484Z,7.68
2022-12-28T06:06:28.486Z,6.82
2022-12-28T06:08:55.852Z,5.72
2022-12-28T06:11:26.514Z,6.95
2022-12-28T06:13:53.927Z,6.43
2022-12-28T06:16:24.130Z,7.50
2022-12-28T06:18:52.528Z,5.95
2022-12-28T06:21:25.592Z,6.97
2022-12-28T06:23:54.627Z,5.70
2022-12-28T06:26:22.330Z,6.57
2022-12-28T06:28:50.465Z,5.38
2022-12-28T06:31:21.085Z,5.72
2022-12-28T06:33:49.735Z,5.72
2022-12-28T06:36:20.910Z,5.45
2022-12-28T06:38:49.290Z,5.68
2022-12-28T06:41:18.464Z,5.88
2022-12-28T06:43:45.809Z,6.55
2022-12-28T06:46:17.381Z,5.85
2022-12-28T06:48:45.107Z,5.65
2022-12-28T06:51:17.351Z,5.18
2022-12-28T06:53:45.647Z,5.80
2022-12-28T06:56:16.725Z,5.10
2022-12-28T06:58:44.946Z,4.93
2022-12-28T07:01:15.072Z,4.88
2022-12-28T07:03:43.748Z,4.90
2022-12-28T07:06:12.870Z,5.00
2022-12-28T07:08:40.729Z,5.25
2022-12-28T07:11:14.209Z,5.65
2022-12-28T07:16:12.704Z,4.72
2022-12-28T07:18:39.988Z,4.70
2022-12-28T07:21:13.355Z,5.60
2022-12-28T07:23:40.392Z,5.43
2022-12-28T07:26:20.562Z,4.22
2022-12-28T07:28:49.560Z,4.40
2022-12-28T07:31:19.878Z,4.72
2022-12-28T07:33:49.838Z,5.03
2022-12-28T07:36:19.397Z,5.22
2022-12-28T07:38:46.916Z,4.72
2022-12-28T07:41:16.367Z,4.85
2022-12-28T07:43:44.064Z,4.25
2022-12-28T07:46:20.461Z,5.20
2022-12-28T07:48:48.142Z,7.25
2022-12-28T07:51:24.208Z,5.68
2022-12-28T07:53:52.564Z,6.35
2022-12-28T07:56:20.734Z,5.47
2022-12-28T07:58:55.070Z,5.95
2022-12-28T08:01:25.357Z,5.88
2022-12-28T08:03:58.016Z,5.65
2022-12-28T08:06:26.361Z,5.00
2022-12-28T08:08:56.070Z,6.32
2022-12-28T08:11:27.479Z,5.75
2022-12-28T08:13:55.959Z,4.72
2022-12-28T08:16:26.828Z,5.78
2022-12-28T08:18:54.804Z,5.80
2022-12-28T08:21:30.837Z,6.75
2022-12-28T08:23:58.566Z,6.28
2022-12-28T08:26:35.438Z,6.75
2022-12-28T08:29:05.659Z,5.72
2022-12-28T08:31:36.297Z,5.85
2022-12-28T08:34:05.055Z,5.75
2022-12-28T08:36:33.036Z,5.68
2022-12-28T08:39:01.406Z,5.68
2022-12-28T08:41:30.757Z,5.10
2022-12-28T08:43:58.390Z,5.55
2022-12-28T08:46:33.287Z,6.72
2022-12-28T08:49:01.311Z,5.57
2022-12-28T08:51:36.663Z,6.07
2022-12-28T08:54:04.159Z,5.40
2022-12-28T08:56:34.608Z,5.47
2022-12-28T08:59:02.635Z,4.90
2022-12-28T09:01:43.757Z,5.45
2022-12-28T09:04:17.715Z,373.35
2022-12-28T09:06:45.246Z,532.35
2022-12-28T09:09:15.467Z,493.25
2022-12-28T09:11:43.629Z,236.23
2022-12-28T09:14:18.511Z,301.88
2022-12-28T09:16:50.352Z,202.55
2022-12-28T09:19:17.603Z,88.68
2022-12-28T09:21:48.910Z,68.78
2022-12-28T09:24:15.964Z,26.52
2022-12-28T09:26:44.031Z,251.10
2022-12-28T09:29:13.746Z,304.60
2022-12-28T09:31:42.132Z,101.72
2022-12-28T09:37:00.817Z,38.60
2022-12-28T09:39:28.869Z,34.15
2022-12-28T09:42:29.061Z,16.67
2022-12-28T09:45:02.916Z,22.77
2022-12-28T09:47:46.005Z,14.75
2022-12-28T09:50:19.197Z,16.23
2022-12-28T09:52:54.353Z,35.10
2022-12-28T09:55:22.131Z,28.42
2022-12-28T09:57:53.257Z,20.63
2022-12-28T10:00:48.736Z,26.52
2022-12-28T10:03:41.008Z,7.07
2022-12-28T10:06:28.820Z,5.60
2022-12-28T10:09:02.397Z,8.60
2022-12-28T10:11:39.436Z,7.82
2022-12-28T10:14:35.900Z,8.77
2022-12-28T10:17:03.237Z,11.05
2022-12-28T10:19:30.916Z,13.02
2022-12-28T10:22:06.989Z,8.23
2022-12-28T10:24:34.769Z,9.70
2022-12-28T10:27:05.287Z,8.57
2022-12-28T10:29:33.519Z,6.55
2022-12-28T10:32:15.197Z,7.28
2022-12-28T10:35:00.896Z,4.40
2022-12-28T10:37:30.890Z,5.18
2022-12-28T10:40:01.650Z,4.57
2022-12-28T10:42:43.207Z,3.45
2022-12-28T10:45:19.776Z,4.00
2022-12-28T10:47:50.728Z,6.30
2022-12-28T10:50:47.927Z,4.22
2022-12-28T10:53:18.037Z,5.22
2022-12-28T10:55:45.467Z,4.25
2022-12-28T10:58:33.125Z,3.58
2022-12-28T11:01:26.519Z,4.95
2022-12-28T11:03:56.482Z,3.50
2022-12-28T11:06:29.850Z,3.90
2022-12-28T11:11:44.893Z,2.45
2022-12-28T11:14:23.837Z,3.22
2022-12-28T11:16:51.620Z,3.97
2022-12-28T11:19:18.986Z,3.28
2022-12-28T11:21:47.342Z,3.58
2022-12-28T11:24:16.456Z,2.70
2022-12-28T11:26:47.613Z,3.30
2022-12-28T11:29:17.096Z,3.17
2022-12-28T11:31:56.967Z,2.85
2022-12-28T11:34:27.523Z,2.90
2022-12-28T11:36:55.903Z,3.72
2022-12-28T11:39:26.152Z,92.45
2022-12-28T11:44:50.307Z,15.73
2022-12-28T11:47:17.544Z,5.25
2022-12-28T11:49:46.137Z,5.53
2022-12-28T11:52:31.019Z,6.75
2022-12-28T11:55:22.211Z,5.22
2022-12-28T11:57:50.250Z,3.95
2022-12-28T12:00:22.312Z,5.50
2022-12-28T12:02:54.288Z,4.32
2022-12-28T12:05:39.592Z,3.70
2022-12-28T12:08:14.254Z,3.65
2022-12-28T12:10:47.897Z,3.83
2022-12-28T12:13:27.037Z,3.33
2022-12-28T12:16:08.036Z,2.88
2022-12-28T12:18:49.839Z,2.42
2022-12-28T12:21:39.662Z,5.47
2022-12-28T12:24:26.907Z,8.15
2022-12-28T12:26:59.539Z,5.38
2022-12-28T12:29:50.776Z,8.27
2022-12-28T12:32:41.768Z,16.92
2022-12-28T12:35:17.476Z,45.88
2022-12-28T12:38:00.328Z,33.63
2022-12-28T12:41:01.623Z,83.88
2022-12-28T12:44:09.727Z,65.80
2022-12-28T12:47:00.652Z,27.05
2022-12-28T12:50:05.975Z,11.85
2022-12-28T12:53:05.754Z,10.82
2022-12-28T12:55:57.118Z,13.68
2022-12-28T12:58:29.613Z,13.90
2022-12-28T13:01:32.036Z,12.37
2022-12-28T13:04:08.276Z,14.73
2022-12-28T13:06:37.046Z,9.02
2022-12-28T13:09:07.548Z,16.63
2022-12-28T13:11:39.339Z,8.00
2022-12-28T13:14:13.152Z,3.70
2022-12-28T13:16:40.208Z,5.63
2022-12-28T13:19:15.860Z,5.05
2022-12-28T13:21:46.439Z,3.45
2022-12-28T13:24:27.399Z,3.70
2022-12-28T13:26:59.735Z,5.60
2022-12-28T13:29:32.182Z,3.70
2022-12-28T13:31:59.443Z,3.58
2022-12-28T13:34:29.903Z,3.38
2022-12-28T13:36:59.686Z,4.10
2022-12-28T13:39:30.143Z,3.03
2022-12-28T13:42:00.255Z,2.33
2022-12-28T13:44:33.728Z,2.83
2022-12-28T13:47:12.635Z,2.28
2022-12-28T13:49:51.817Z,2.65
2022-12-28T13:52:27.394Z,2.30
2022-12-28T13:55:00.047Z,2.88
2022-12-28T13:57:49.058Z,3.13
2022-12-28T14:00:19.787Z,2.70
2022-12-28T14:02:48.640Z,88.20
2022-12-28T14:05:22.562Z,24.65
2022-12-28T14:07:51.884Z,7.20
2022-12-28T14:10:20.639Z,5.22
2022-12-28T14:12:48.779Z,6.28
2022-12-28T14:15:17.565Z,6.22
2022-12-28T14:17:47.310Z,5.57
2022-12-28T14:20:14.678Z,4.55
2022-12-28T14:22:42.317Z,3.53
2022-12-28T14:25:15.472Z,3.75
2022-12-28T14:27:58.080Z,6.15
2022-12-28T14:30:39.511Z,5.15
2022-12-28T14:33:24.625Z,4.97
2022-12-28T14:35:59.898Z,2.88
2022-12-28T14:38:38.147Z,2.60
2022-12-28T14:41:06.407Z,2.55
2022-12-28T14:43:37.425Z,38.38
2022-12-28T14:46:37.244Z,20.15
2022-12-28T14:49:29.243Z,20.23
2022-12-28T14:52:06.086Z,11.40
2022-12-28T14:54:54.544Z,11.30
2022-12-28T14:57:35.272Z,21.85
2022-12-28T15:00:21.973Z,9.88
2022-12-28T15:02:49.979Z,8.90
2022-12-28T15:05:44.411Z,9.75
2022-12-28T15:08:12.453Z,6.57
2022-12-28T15:10:52.074Z,7.95
2022-12-28T15:13:21.291Z,10.23
2022-12-28T15:15:55.157Z,13.65
2022-12-28T15:18:22.859Z,17.55
2022-12-28T15:20:50.247Z,16.42
2022-12-28T15:23:17.893Z,4.30
2022-12-28T15:25:45.007Z,4.65
2022-12-28T15:28:12.549Z,5.45
2022-12-28T15:30:41.213Z,5.78
2022-12-28T15:33:09.320Z,4.47
2022-12-28T15:35:36.583Z,4.45
2022-12-28T15:38:04.284Z,9.95
2022-12-28T15:40:31.305Z,4.57
2022-12-28T15:42:58.709Z,4.55
2022-12-28T15:45:26.108Z,3.63
2022-12-28T15:47:54.380Z,3.53
2022-12-28T15:50:21.954Z,3.25
2022-12-28T15:52:49.385Z,3.65
2022-12-28T15:55:17.661Z,3.72
2022-12-28T15:57:45.394Z,3.15
2022-12-28T16:00:18.955Z,4.10
2022-12-28T16:02:46.911Z,3.25
2022-12-28T16:05:14.640Z,4.00
2022-12-28T16:07:42.243Z,4.43
2022-12-28T16:10:09.647Z,5.40
2022-12-28T16:12:37.214Z,3.63
2022-12-28T16:15:04.470Z,3.53
2022-12-28T16:17:32.217Z,4.80
2022-12-28T16:19:59.295Z,4.15
2022-12-28T16:22:26.985Z,4.05
2022-12-28T16:24:53.962Z,6.60
2022-12-28T16:27:21.245Z,8.52
2022-12-28T16:29:52.731Z,9.85
2022-12-28T16:32:22.766Z,8.05
2022-12-28T16:34:49.751Z,6.68
2022-12-28T16:37:17.337Z,10.50
2022-12-28T16:39:44.361Z,12.55
2022-12-28T16:42:11.870Z,9.52
2022-12-28T16:44:39.868Z,11.07
2022-12-28T16:47:07.742Z,9.60
2022-12-28T16:49:39.624Z,9.57
2022-12-28T16:52:07.316Z,21.25
2022-12-28T16:54:34.399Z,7.38
2022-12-28T16:57:01.996Z,4.53
2022-12-28T16:59:29.549Z,5.13
2022-12-28T17:01:58.934Z,4.90
2022-12-28T17:04:26.462Z,4.53
2022-12-28T17:06:54.194Z,6.80
2022-12-28T17:09:21.599Z,8.15
2022-12-28T17:11:50.290Z,12.68
2022-12-28T17:14:29.110Z,14.18
2022-12-28T17:17:02.953Z,7.72
2022-12-28T17:19:30.671Z,7.18
2022-12-28T17:21:58.274Z,4.30
2022-12-28T17:24:25.311Z,3.70
2022-12-28T17:26:52.709Z,3.90
2022-12-28T17:29:19.938Z,4.25
2022-12-28T17:31:47.357Z,4.53
2022-12-28T17:34:15.094Z,4.65
2022-12-28T17:36:42.613Z,3.92
2022-12-28T17:39:09.684Z,3.95
2022-12-28T17:41:37.561Z,3.47
2022-12-28T17:44:04.982Z,4.20
2022-12-28T17:46:33.319Z,3.28
2022-12-28T17:49:00.876Z,3.15
2022-12-28T17:51:29.436Z,3.83
2022-12-28T17:53:57.300Z,3.65
2022-12-28T17:56:25.690Z,4.63
2022-12-28T17:58:58.516Z,4.10
2022-12-28T18:01:27.998Z,3.70
2022-12-28T18:03:56.501Z,3.55
2022-12-28T18:06:24.550Z,3.78
2022-12-28T18:08:52.096Z,5.32
2022-12-28T18:11:19.509Z,5.20
2022-12-28T18:13:47.535Z,4.47
2022-12-28T18:16:17.300Z,5.10
2022-12-28T18:18:44.369Z,3.80
2022-12-28T18:21:21.113Z,4.40
2022-12-28T18:23:51.762Z,4.35
2022-12-28T18:26:22.196Z,4.43
2022-12-28T18:28:49.277Z,4.43
2022-12-28T18:31:16.768Z,3.97
2022-12-28T18:33:43.841Z,4.20
2022-12-28T18:36:17.102Z,3.30
2022-12-28T18:38:45.723Z,3.85
2022-12-28T18:41:14.889Z,4.72
2022-12-28T18:43:42.319Z,4.03
2022-12-28T18:46:10.084Z,4.65
2022-12-28T18:48:39.079Z,4.20
2022-12-28T18:51:09.969Z,3.67
2022-12-28T18:53:37.883Z,4.32
2022-12-28T18:56:13.610Z,4.57
2022-12-28T18:58:41.967Z,3.55
2022-12-28T19:01:32.469Z,3.90
2022-12-28T19:04:00.988Z,4.85
2022-12-28T19:06:29.435Z,4.90
2022-12-28T19:09:00.446Z,5.00
2022-12-28T19:11:28.995Z,5.18
2022-12-28T19:13:57.055Z,3.80
2022-12-28T19:16:31.064Z,4.40
2022-12-28T19:18:59.605Z,4.57
2022-12-28T19:21:26.917Z,4.35
2022-12-28T19:23:55.221Z,3.88
2022-12-28T19:26:24.230Z,4.10
2022-12-28T19:28:52.167Z,4.35
2022-12-28T19:31:19.577Z,3.95
2022-12-28T19:33:47.481Z,3.80
2022-12-28T19:36:14.801Z,4.18
2022-12-28T19:38:42.073Z,3.90
2022-12-28T19:41:13.421Z,4.20
2022-12-28T19:43:40.668Z,3.83
2022-12-28T19:46:22.262Z,4.03
2022-12-28T19:48:52.832Z,4.70
2022-12-28T19:51:20.121Z,3.72
2022-12-28T19:53:47.186Z,3.83
2022-12-28T19:56:17.115Z,3.65
2022-12-28T19:58:45.659Z,3.53
2022-12-28T20:01:18.876Z,3.50
2022-12-28T20:03:46.745Z,4.10
2022-12-28T20:06:23.392Z,4.55
2022-12-28T20:08:52.460Z,4.80
2022-12-28T20:11:21.643Z,5.47
2022-12-28T20:13:57.759Z,4.68
2022-12-28T20:16:27.088Z,4.07
2022-12-28T20:18:54.913Z,4.68
2022-12-28T20:21:24.232Z,4.70
2022-12-28T20:23:52.713Z,4.20
2022-12-28T20:26:21.223Z,4.47
2022-12-28T20:28:51.150Z,4.30
2022-12-28T20:31:19.409Z,5.93
2022-12-28T20:33:47.077Z,5.00
2022-12-28T20:36:17.065Z,4.60
2022-12-28T20:38:45.835Z,3.95
2022-12-28T20:41:37.494Z,5.15
2022-12-28T20:44:08.241Z,5.45
2022-12-28T20:46:36.872Z,5.05
2022-12-28T20:49:04.564Z,4.10
2022-12-28T20:51:32.771Z,4.43
2022-12-28T20:53:59.877Z,5.22
2022-12-28T20:56:27.702Z,3.75
2022-12-28T20:58:54.738Z,5.72
2022-12-28T21:01:22.570Z,4.53
2022-12-28T21:03:49.826Z,4.60
2022-12-28T21:06:17.146Z,3.75
2022-12-28T21:08:44.227Z,4.30
2022-12-28T21:11:11.649Z,4.70
2022-12-28T21:13:43.913Z,4.88
2022-12-28T21:16:14.039Z,4.63
2022-12-28T21:18:41.774Z,5.28
2022-12-28T21:21:22.903Z,4.75
2022-12-28T21:23:52.475Z,4.40
2022-12-28T21:26:20.931Z,3.97
2022-12-28T21:28:48.230Z,3.95
2022-12-28T21:31:15.929Z,4.18
2022-12-28T21:33:44.214Z,5.20
2022-12-28T21:36:17.845Z,4.10
2022-12-28T21:38:46.491Z,4.47
2022-12-28T21:41:16.894Z,4.75
2022-12-28T21:43:43.885Z,3.88
2022-12-28T21:46:13.619Z,4.68
2022-12-28T21:48:41.774Z,4.72
2022-12-28T21:51:35.013Z,5.22
2022-12-28T21:54:14.318Z,4.45
2022-12-28T21:56:43.644Z,4.18
2022-12-28T21:59:12.663Z,4.50
2022-12-28T22:02:00.702Z,4.88
2022-12-28T22:04:47.106Z,7.78
2022-12-28T22:07:17.044Z,5.88
2022-12-28T22:10:03.151Z,5.65
2022-12-28T22:12:37.186Z,6.20
2022-12-28T22:15:29.041Z,5.95
2022-12-28T22:17:59.246Z,4.53
2022-12-28T22:20:27.598Z,4.95
2022-12-28T22:22:57.142Z,4.43
2022-12-28T22:25:25.186Z,4.55
2022-12-28T22:27:52.667Z,4.97
2022-12-28T22:30:19.783Z,4.90
2022-12-28T22:32:47.396Z,5.18
2022-12-28T22:35:14.710Z,5.15
2022-12-28T22:37:42.869Z,4.93
2022-12-28T22:40:11.586Z,4.07
2022-12-28T22:42:47.717Z,4.72
2022-12-28T22:45:17.548Z,4.00
2022-12-28T22:47:46.078Z,3.90
2022-12-28T22:50:15.622Z,4.10
2022-12-28T22:52:43.262Z,4.80
2022-12-28T22:55:10.793Z,3.92
2022-12-28T22:57:38.417Z,4.28
2022-12-28T23:00:09.249Z,3.90
2022-12-28T23:02:37.008Z,4.15
2022-12-28T23:05:04.964Z,4.70
2022-12-28T23:07:32.217Z,3.90
2022-12-28T23:09:59.193Z,3.78
2022-12-28T23:12:26.470Z,4.00
2022-12-28T23:15:11.873Z,3.55
2022-12-28T23:17:39.514Z,4.18
2022-12-28T23:20:25.498Z,4.32
2022-12-28T23:23:02.200Z,5.25
2022-12-28T23:25:47.946Z,4.18
2022-12-28T23:28:16.629Z,3.55
2022-12-28T23:30:47.182Z,4.30
2022-12-28T23:33:16.321Z,3.75
2022-12-28T23:35:43.682Z,3.80
2022-12-28T23:38:12.039Z,4.07
2022-12-28T23:40:40.232Z,4.43
2022-12-28T23:43:08.212Z,4.38
2022-12-28T23:45:36.178Z,3.58
2022-12-28T23:48:04.913Z,3.75
2022-12-28T23:50:32.090Z,4.10
2022-12-28T23:52:59.802Z,4.25
2022-12-28T23:55:27.015Z,3.70
2022-12-28T23:57:54.592Z,4.53
